Time;durP1;ratioP1;P1;durP2;ratioP2;P2;SDS_P1;SDS_P2;PMS_P1;PMS_P2;Temp;Humidity;BMP_temperature;BMP_pressure;BME280_temperature;BME280_humidity;BME280_pressure;Samples;Min_cycle;Max_cycle;Signal;HPM_P1;HPM_P2
2022/12/18 00:01:58;;;;;;;45.25;17.58;;;;;;;-5.25;91.35;102695.16;4976457;28;20050;-69
2022/12/18 00:04:26;;;;;;;22.33;10.15;;;;;;;-5.91;93.70;102688.78;4989237;28;20053;-70
2022/12/18 00:06:54;;;;;;;45.90;13.00;;;;;;;-5.44;92.86;102696.03;4976614;28;20677;-70
2022/12/18 00:09:21;;;;;;;43.70;12.98;;;;;;;-5.44;93.21;102690.91;4960601;28;20070;-70
2022/12/18 00:11:47;;;;;;;30.17;11.95;;;;;;;-5.01;90.43;102688.50;4971248;28;20061;-70
2022/12/18 00:14:14;;;;;;;30.02;10.15;;;;;;;-5.07;90.34;102689.16;4969111;28;20054;-70
2022/12/18 00:16:44;;;;;;;76.03;16.73;;;;;;;-5.32;91.15;102691.41;4979141;28;20053;-70
2022/12/18 00:19:11;;;;;;;39.33;15.82;;;;;;;-5.03;90.08;102698.69;4984627;28;20046;-70
2022/12/18 00:21:41;;;;;;;26.38;8.30;;;;;;;-5.61;91.43;102709.72;4981253;28;20045;-69
2022/12/18 00:24:09;;;;;;;69.85;12.60;;;;;;;-5.53;92.57;102699.03;4993929;28;20416;-70
2022/12/18 00:26:37;;;;;;;59.53;18.38;;;;;;;-5.35;91.79;102692.97;4980529;28;20516;-70
2022/12/18 00:29:06;;;;;;;25.30;11.07;;;;;;;-5.46;92.95;102698.50;4967695;28;20076;-70
2022/12/18 00:31:33;;;;;;;28.25;11.27;;;;;;;-5.63;92.59;102694.31;4987904;28;20060;-70
2022/12/18 00:33:59;;;;;;;42.95;14.70;;;;;;;-5.52;93.64;102688.00;4975616;28;20068;-70
2022/12/18 00:36:28;;;;;;;26.42;9.82;;;;;;;-5.06;91.48;102680.63;4990367;28;20050;-70
2022/12/18 00:38:56;;;;;;;51.80;17.30;;;;;;;-5.19;91.85;102688.59;4957723;28;20060;-70
2022/12/18 00:44:11;;;;;;;40.53;14.48;;;;;;;-5.44;92.85;102699.47;4993413;28;20135;-70
2022/12/18 00:46:38;;;;;;;36.13;15.57;;;;;;;-5.36;92.27;102697.25;4977180;28;20061;-70
2022/12/18 00:49:05;;;;;;;28.38;10.45;;;;;;;-5.92;94.62;102692.16;4967779;28;20054;-70
2022/12/18 00:51:31;;;;;;;20.08;7.72;;;;;;;-6.20;96.47;102699.31;4960996;28;20533;-70
2022/12/18 00:53:58;;;;;;;39.20;15.95;;;;;;;-5.50;95.79;102700.84;4992861;28;20057;-70
2022/12/18 00:56:26;;;;;;;36.13;13.25;;;;;;;-4.75;90.66;102694.72;4977304;28;20053;-70
2022/12/18 00:58:52;;;;;;;44.63;15.18;;;;;;;-4.89;90.63;102696.72;4990023;28;20046;-70
2022/12/18 01:01:19;;;;;;;68.13;18.00;;;;;;;-5.32;90.84;102701.66;4970449;28;20427;-70
2022/12/18 01:03:46;;;;;;;39.05;14.95;;;;;;;-5.22;92.08;102705.50;4970835;28;20125;-70
2022/12/18 01:06:14;;;;;;;35.50;12.77;;;;;;;-5.15;90.73;102699.84;4991714;28;20102;-70
2022/12/18 01:08:40;;;;;;;40.53;15.65;;;;;;;-4.73;89.23;102716.16;4969838;28;20058;-70
2022/12/18 01:11:09;;;;;;;25.95;10.35;;;;;;;-5.18;88.98;102715.94;4998424;28;20050;-70
2022/12/18 01:13:37;;;;;;;35.97;13.95;;;;;;;-5.52;91.87;102722.91;4987918;28;20060;-70
2022/12/18 01:16:04;;;;;;;46.25;16.05;;;;;;;-5.37;91.79;102721.06;4980160;28;20510;-70
2022/12/18 01:18:30;;;;;;;30.67;10.57;;;;;;;-4.89;88.69;102721.41;4971044;28;20421;-69
2022/12/18 01:20:57;;;;;;;58.03;17.38;;;;;;;-4.48;87.44;102709.53;4960757;28;20050;-69
2022/12/18 01:23:23;;;;;;;69.55;23.20;;;;;;;-4.87;87.17;102725.78;4972044;28;20414;-69
2022/12/18 01:25:50;;;;;;;29.02;11.13;;;;;;;-5.08;88.59;102717.19;5004374;28;20427;-69
2022/12/18 01:28:16;;;;;;;53.55;19.77;;;;;;;-5.59;91.42;102732.00;4964983;28;20050;-70
2022/12/18 01:30:44;;;;;;;46.60;18.50;;;;;;;-5.55;91.75;102739.00;4970982;28;20054;-70
2022/12/18 01:33:10;;;;;;;125.13;16.55;;;;;;;-5.17;91.38;102727.91;4974620;28;20053;-70
2022/12/18 01:35:41;;;;;;;58.83;19.33;;;;;;;-5.46;91.28;102743.63;4968466;28;20042;-69
2022/12/18 01:38:08;;;;;;;40.10;12.43;;;;;;;-5.17;90.29;102730.44;4999555;28;20050;-69
2022/12/18 01:40:34;;;;;;;25.95;10.48;;;;;;;-5.65;90.94;102741.91;4971747;28;20399;-69
2022/12/18 01:43:01;;;;;;;81.72;23.02;;;;;;;-5.90;93.53;102744.19;4969604;28;20748;-69
2022/12/18 01:45:30;;;;;;;62.70;19.55;;;;;;;-5.93;93.90;102739.81;4999891;28;20050;-69
2022/12/18 01:48:00;;;;;;;49.38;17.20;;;;;;;-5.69;93.97;102746.84;4989708;28;20064;-69
2022/12/18 01:50:31;;;;;;;28.35;12.02;;;;;;;-6.13;94.17;102760.97;4985410;28;20046;-69
2022/12/18 01:53:00;;;;;;;62.55;19.55;;;;;;;-5.69;92.97;102759.63;4983843;28;21395;-69
2022/12/18 01:55:30;;;;;;;65.32;19.85;;;;;;;-5.96;93.52;102752.44;4981349;28;20046;-69
2022/12/18 01:58:00;;;;;;;50.65;17.02;;;;;;;-5.88;93.93;102754.47;4972437;28;20068;-69
2022/12/18 02:00:27;;;;;;;75.72;14.32;;;;;;;-5.90;92.52;102754.41;4983601;28;20063;-69
2022/12/18 02:02:54;;;;;;;46.78;17.50;;;;;;;-6.26;95.49;102758.63;4977795;28;20061;-70
2022/12/18 02:05:30;;;;;;;60.85;21.90;;;;;;;-5.92;94.62;102766.25;4980778;28;20057;-69
2022/12/18 02:08:05;;;;;;;59.15;15.35;;;;;;;-5.97;94.00;102763.47;4987930;28;20050;-69
2022/12/18 02:10:42;;;;;;;47.65;15.13;;;;;;;-6.09;95.15;102761.97;4995894;28;20688;-69
2022/12/18 02:13:15;;;;;;;70.68;21.70;;;;;;;-5.81;94.26;102764.16;4974682;28;20061;-69
2022/12/18 02:15:49;;;;;;;58.10;19.80;;;;;;;-5.70;92.67;102755.31;4973431;28;20054;-69
2022/12/18 02:18:21;;;;;;;66.72;19.83;;;;;;;-5.73;92.53;102753.50;4975949;28;20048;-69
2022/12/18 02:20:55;;;;;;;71.28;18.55;;;;;;;-5.35;90.73;102756.88;4981786;28;20065;-69
2022/12/18 02:23:36;;;;;;;58.15;17.55;;;;;;;-5.25;90.26;102749.72;4977192;28;20054;-69
2022/12/18 02:26:18;;;;;;;68.75;19.27;;;;;;;-4.97;89.07;102739.00;4965837;28;20061;-69
2022/12/18 02:28:49;;;;;;;88.25;20.70;;;;;;;-5.22;89.54;102747.31;5004562;28;20056;-69
2022/12/18 02:31:21;;;;;;;55.45;19.67;;;;;;;-5.02;89.48;102743.03;4973754;28;20076;-69
2022/12/18 02:33:51;;;;;;;48.40;18.27;;;;;;;-4.99;88.46;102736.38;4960451;28;20042;-69
2022/12/18 02:36:19;;;;;;;56.67;19.70;;;;;;;-4.69;86.85;102738.50;4990514;28;20531;-70
2022/12/18 02:38:47;;;;;;;69.50;21.98;;;;;;;-4.67;85.72;102732.63;4961184;28;20060;-69
2022/12/18 02:41:17;;;;;;;45.03;13.85;;;;;;;-5.49;89.36;102739.25;4973174;28;20053;-70
2022/12/18 02:43:51;;;;;;;52.53;19.38;;;;;;;-5.29;89.24;102731.63;4971513;28;20832;-69
2022/12/18 02:46:32;;;;;;;31.23;9.75;;;;;;;-5.54;89.82;102729.63;4962476;28;20054;-69
2022/12/18 02:49:07;;;;;;;31.98;11.88;;;;;;;-5.46;89.76;102724.06;4949213;28;20805;-69
2022/12/18 02:51:41;;;;;;;51.67;19.17;;;;;;;-5.75;90.44;102731.22;4955818;28;20054;-69
2022/12/18 02:54:16;;;;;;;58.40;16.67;;;;;;;-5.45;90.49;102730.06;4957535;28;20054;-69
2022/12/18 02:56:48;;;;;;;63.55;21.52;;;;;;;-5.15;88.77;102731.41;4973639;28;20432;-69
2022/12/18 02:59:22;;;;;;;26.33;10.60;;;;;;;-5.19;87.52;102732.09;4959522;28;20061;-69
2022/12/18 03:01:56;;;;;;;95.07;25.45;;;;;;;-5.40;88.93;102738.81;4961145;28;20062;-69
2022/12/18 03:04:27;;;;;;;61.33;19.02;;;;;;;-5.13;88.64;102740.00;5007716;28;20422;-69
2022/12/18 03:06:57;;;;;;;20.88;8.55;;;;;;;-5.76;90.22;102752.44;4994151;28;20148;-69
2022/12/18 03:09:30;;;;;;;46.67;16.40;;;;;;;-5.91;92.04;102743.31;4990202;28;20065;-69
2022/12/18 03:12:24;;;;;;;36.17;14.15;;;;;;;-5.42;91.04;102743.84;4982682;28;20307;-69
2022/12/18 03:14:55;;;;;;;45.88;15.80;;;;;;;-5.69;91.20;102759.63;4987433;28;20166;-69
2022/12/18 03:17:26;;;;;;;85.10;26.77;;;;;;;-5.18;88.37;102746.63;5004690;28;20561;-69
2022/12/18 03:19:55;;;;;;;89.13;26.80;;;;;;;-6.00;92.25;102758.22;4978066;28;20050;-69
2022/12/18 03:22:24;;;;;;;48.03;16.67;;;;;;;-5.56;92.04;102759.38;4972652;28;20049;-69
2022/12/18 03:24:52;;;;;;;62.80;18.63;;;;;;;-5.29;89.92;102769.97;4962589;28;20049;-69
2022/12/18 03:27:24;;;;;;;80.95;24.88;;;;;;;-5.96;92.71;102774.56;4980055;28;20049;-69
2022/12/18 03:29:56;;;;;;;59.30;20.20;;;;;;;-6.27;94.20;102772.19;5007329;28;20414;-69
2022/12/18 03:32:28;;;;;;;60.45;15.90;;;;;;;-6.27;94.98;102774.75;5006243;28;20096;-69
2022/12/18 03:34:59;;;;;;;57.67;17.83;;;;;;;-5.78;93.08;102770.28;4993539;28;20417;-69
2022/12/18 03:37:26;;;;;;;64.95;19.35;;;;;;;-5.38;92.00;102770.41;4971820;28;20061;-69
2022/12/18 03:39:52;;;;;;;76.10;21.27;;;;;;;-5.89;93.03;102763.81;4990582;28;20620;-69
2022/12/18 03:42:26;;;;;;;53.88;17.50;;;;;;;-5.86;93.06;102756.28;4981236;28;20050;-69
2022/12/18 03:44:59;;;;;;;73.78;18.60;;;;;;;-5.91;93.76;102761.19;4961909;28;20434;-69
2022/12/18 03:47:30;;;;;;;68.18;20.08;;;;;;;-5.75;94.05;102761.88;4967688;28;20057;-69
2022/12/18 03:50:01;;;;;;;101.82;25.80;;;;;;;-6.06;95.02;102759.59;4959236;28;20061;-69
2022/12/18 03:52:33;;;;;;;38.22;16.00;;;;;;;-6.03;94.87;102762.31;5002925;28;20052;-69
2022/12/18 03:55:01;;;;;;;;;;;;;;;-5.32;93.19;102770.69;4990495;28;20058;-70
2022/12/18 03:57:32;;;;;;;47.58;15.82;;;;;;;-5.72;92.93;102765.44;4958192;28;20382;-70
2022/12/18 04:00:03;;;;;;;60.22;21.60;;;;;;;-5.39;93.08;102763.53;4967981;28;20058;-70
2022/12/18 04:02:31;;;;;;;54.75;16.90;;;;;;;-5.91;94.31;102760.31;4959792;28;20054;-70
2022/12/18 04:05:01;;;;;;;72.90;19.90;;;;;;;-5.99;95.53;102759.97;5000436;28;20413;-70
2022/12/18 04:07:28;;;;;;;100.72;23.83;;;;;;;-5.90;95.36;102762.06;4971264;28;20039;-70
2022/12/18 04:09:59;;;;;;;58.15;15.85;;;;;;;-6.17;95.51;102759.06;4967610;28;20045;-69
2022/12/18 04:12:25;;;;;;;66.97;16.52;;;;;;;-6.09;96.29;102752.66;5022658;28;20049;-70
2022/12/18 04:14:53;;;;;;;57.95;18.35;;;;;;;-5.84;94.60;102756.34;4999107;28;20053;-69
2022/12/18 04:17:20;;;;;;;63.90;15.35;;;;;;;-5.58;93.30;102750.75;4987576;28;20053;-69
2022/12/18 04:19:46;;;;;;;54.97;17.83;;;;;;;-5.52;93.42;102748.47;5001064;28;20271;-69
2022/12/18 04:22:13;;;;;;;63.97;19.88;;;;;;;-6.09;95.23;102745.00;4993181;28;20050;-69
2022/12/18 04:24:39;;;;;;;55.10;18.58;;;;;;;-5.78;95.22;102749.84;4980265;28;20049;-69
2022/12/18 04:27:06;;;;;;;51.53;18.75;;;;;;;-5.33;94.10;102753.63;4989742;28;20050;-69
2022/12/18 04:29:33;;;;;;;39.17;14.35;;;;;;;-5.61;92.96;102754.03;5002031;28;20049;-69
2022/12/18 04:32:00;;;;;;;54.13;18.08;;;;;;;-5.50;91.95;102747.72;5014842;28;20099;-69
2022/12/18 04:34:27;;;;;;;53.25;18.85;;;;;;;-5.32;92.30;102746.81;4998843;28;20432;-69
2022/12/18 04:36:53;;;;;;;28.75;9.55;;;;;;;-5.34;91.73;102749.31;4986638;28;20060;-69
2022/12/18 04:39:20;;;;;;;59.17;21.20;;;;;;;-5.70;94.78;102753.63;4976700;28;20052;-70
2022/12/18 04:41:46;;;;;;;38.58;16.88;;;;;;;-5.23;93.49;102760.88;5000676;28;20048;-70
2022/12/18 04:44:13;;;;;;;35.80;14.52;;;;;;;-5.27;92.84;102753.88;4986798;28;20068;-70
2022/12/18 04:46:39;;;;;;;30.83;9.70;;;;;;;-4.93;90.53;102749.44;4978480;28;20046;-70
2022/12/18 04:49:07;;;;;;;26.67;11.63;;;;;;;-5.36;92.16;102748.38;4996915;28;20049;-70
2022/12/18 04:51:33;;;;;;;56.70;20.05;;;;;;;-5.35;92.58;102754.34;4988009;28;20046;-70
2022/12/18 04:54:00;;;;;;;47.90;17.25;;;;;;;-5.47;93.35;102770.88;4976718;28;20422;-70
2022/12/18 04:56:26;;;;;;;47.50;17.77;;;;;;;-5.65;94.63;102779.38;4989314;28;20626;-70
2022/12/18 04:58:53;;;;;;;59.05;20.33;;;;;;;-5.53;94.03;102782.50;4996597;28;20050;-70
2022/12/18 05:01:19;;;;;;;34.80;13.82;;;;;;;-5.05;92.55;102777.03;4978566;28;20062;-70
2022/12/18 05:03:46;;;;;;;46.67;17.63;;;;;;;-4.76;89.96;102775.72;5001596;28;20430;-69
2022/12/18 05:06:14;;;;;;;40.13;15.48;;;;;;;-5.19;91.32;102778.13;5015270;28;20552;-69
2022/12/18 05:08:40;;;;;;;38.00;14.25;;;;;;;-4.69;89.78;102770.06;4997766;28;20052;-69
2022/12/18 05:11:08;;;;;;;75.50;24.35;;;;;;;-5.45;92.45;102791.41;5003913;28;20360;-69
2022/12/18 05:13:35;;;;;;;42.55;18.70;;;;;;;-5.30;92.69;102792.09;4993986;28;20406;-69
2022/12/18 05:16:02;;;;;;;39.97;13.75;;;;;;;-5.35;92.06;102788.44;4980357;28;20065;-69
2022/12/18 05:18:29;;;;;;;50.22;18.20;;;;;;;-5.84;94.86;102782.78;4999370;28;20076;-69
2022/12/18 05:20:56;;;;;;;53.95;21.02;;;;;;;-5.36;93.26;102786.72;4969990;28;20068;-69
2022/12/18 05:23:25;;;;;;;46.42;14.57;;;;;;;-5.38;93.47;102778.09;4961973;28;20514;-69
2022/12/18 05:25:53;;;;;;;54.70;17.02;;;;;;;-5.52;94.24;102780.03;4994201;28;20690;-70
2022/12/18 05:28:19;;;;;;;25.05;11.80;;;;;;;-5.99;95.26;102767.63;4977460;28;20054;-70
2022/12/18 05:30:49;;;;;;;51.15;18.67;;;;;;;-5.72;95.13;102768.00;4977992;28;20052;-70
2022/12/18 05:33:15;;;;;;;64.50;20.38;;;;;;;-5.52;95.70;102774.03;4981685;28;20682;-70
2022/12/18 05:35:42;;;;;;;36.38;15.85;;;;;;;-5.33;95.16;102781.75;4999972;28;20057;-70
2022/12/18 05:38:08;;;;;;;43.67;16.45;;;;;;;-4.95;92.28;102773.19;4962545;28;20050;-70
2022/12/18 05:40:37;;;;;;;72.97;25.05;;;;;;;-5.10;92.80;102777.66;4969702;28;20077;-70
2022/12/18 05:43:03;;;;;;;43.92;16.75;;;;;;;-5.02;92.23;102776.28;4970434;28;20078;-70
2022/12/18 05:45:30;;;;;;;72.07;24.50;;;;;;;-5.17;91.71;102767.97;4993539;28;20057;-70
2022/12/18 05:47:57;;;;;;;81.25;26.40;;;;;;;-5.19;92.40;102775.56;4995442;28;20051;-70
2022/12/18 05:50:23;;;;;;;62.00;19.67;;;;;;;-4.80;91.02;102770.44;4969141;28;20061;-70
2022/12/18 05:52:50;;;;;;;80.63;27.45;;;;;;;-5.27;92.59;102782.00;4979116;28;20073;-70
2022/12/18 05:55:16;;;;;;;69.30;22.00;;;;;;;-5.15;92.29;102780.00;4987654;28;20762;-70
2022/12/18 05:57:44;;;;;;;55.58;22.60;;;;;;;-5.64;94.57;102793.91;4991550;28;20050;-70
2022/12/18 06:00:12;;;;;;;74.85;25.48;;;;;;;-5.22;93.40;102798.44;4978173;28;20054;-69
2022/12/18 06:02:38;;;;;;;90.55;27.52;;;;;;;-4.99;92.81;102805.44;4981583;28;20502;-70
2022/12/18 06:05:06;;;;;;;76.80;24.52;;;;;;;-5.07;92.49;102809.38;4980756;28;20057;-70
2022/12/18 06:07:32;;;;;;;71.38;24.15;;;;;;;-5.25;93.78;102800.88;4986562;28;20048;-70
2022/12/18 06:09:59;;;;;;;86.65;25.65;;;;;;;-5.36;92.75;102791.84;4989523;28;20053;-70
2022/12/18 06:12:25;;;;;;;71.97;24.55;;;;;;;-5.33;93.69;102797.09;4993047;28;20053;-70
2022/12/18 06:14:53;;;;;;;68.45;21.50;;;;;;;-4.62;91.35;102792.53;4983427;28;20056;-70
2022/12/18 06:17:19;;;;;;;65.03;22.10;;;;;;;-5.20;92.81;102801.94;5003524;28;20053;-70
2022/12/18 06:19:46;;;;;;;78.63;26.73;;;;;;;-5.13;92.31;102806.50;5009228;28;20065;-70
2022/12/18 06:22:12;;;;;;;61.20;20.67;;;;;;;-5.24;92.86;102807.72;5007505;28;20041;-70
2022/12/18 06:24:38;;;;;;;65.55;21.80;;;;;;;-5.69;95.42;102803.06;5017308;28;20127;-70
2022/12/18 06:27:05;;;;;;;26.10;10.57;;;;;;;-5.37;94.08;102799.41;5028638;28;20428;-70
2022/12/18 06:29:31;;;;;;;30.92;11.20;;;;;;;-5.39;93.77;102803.59;5005031;28;20042;-70
2022/12/18 06:31:59;;;;;;;61.78;22.13;;;;;;;-5.18;93.77;102797.78;5009648;28;20053;-70
2022/12/18 06:34:26;;;;;;;63.90;20.23;;;;;;;-4.97;92.57;102791.03;4995599;28;20418;-70
2022/12/18 06:36:52;;;;;;;33.90;12.68;;;;;;;-4.55;91.14;102783.47;4982417;28;20054;-70
2022/12/18 06:39:19;;;;;;;36.88;14.77;;;;;;;-4.95;90.37;102785.97;5018408;28;20049;-70
2022/12/18 06:41:45;;;;;;;45.15;16.60;;;;;;;-5.05;91.36;102794.94;4987746;28;20042;-70
2022/12/18 06:44:12;;;;;;;53.47;18.55;;;;;;;-5.31;93.53;102802.25;4980362;28;20061;-70
2022/12/18 06:46:38;;;;;;;53.25;17.92;;;;;;;-5.77;95.35;102800.13;5002870;28;20049;-70
2022/12/18 06:49:06;;;;;;;41.08;14.57;;;;;;;-5.39;95.27;102812.13;4988540;28;20070;-70
2022/12/18 06:51:33;;;;;;;47.25;17.77;;;;;;;-5.14;93.34;102804.78;4979796;28;20659;-70
2022/12/18 06:53:59;;;;;;;18.13;8.95;;;;;;;-5.54;94.38;102812.28;4990232;28;20050;-70
2022/12/18 06:56:26;;;;;;;52.40;19.55;;;;;;;-5.10;92.36;102806.63;5000832;28;20045;-70
2022/12/18 06:58:52;;;;;;;47.13;18.67;;;;;;;-5.09;92.01;102798.16;4983976;28;20266;-70
2022/12/18 07:01:19;;;;;;;55.60;20.92;;;;;;;-4.95;90.46;102809.88;4989450;28;20421;-70
2022/12/18 07:03:46;;;;;;;36.72;14.40;;;;;;;-5.33;91.19;102811.53;4990442;28;20042;-70
2022/12/18 07:06:18;;;;;;;56.08;20.73;;;;;;;-5.31;91.00;102826.13;4993087;28;20041;-70
2022/12/18 07:08:44;;;;;;;;;;;;;;;-5.75;92.22;102830.84;5005191;28;20046;-70
2022/12/18 07:11:11;;;;;;;43.38;16.90;;;;;;;-5.93;94.10;102836.88;5010072;28;20309;-70
2022/12/18 07:13:38;;;;;;;43.63;16.77;;;;;;;-5.69;92.13;102833.72;5000284;28;20099;-71
2022/12/18 07:16:07;;;;;;;56.08;19.30;;;;;;;-5.98;94.09;102830.66;5020348;28;20417;-70
2022/12/18 07:18:33;;;;;;;53.67;21.27;;;;;;;-5.97;94.31;102832.41;5002872;28;20041;-70
2022/12/18 07:21:04;;;;;;;50.58;21.02;;;;;;;-5.38;91.97;102834.34;5000213;28;20405;-70
2022/12/18 07:23:33;;;;;;;52.20;21.20;;;;;;;-5.08;90.94;102847.66;5009019;28;20382;-71
2022/12/18 07:26:02;;;;;;;68.18;22.58;;;;;;;-5.14;89.60;102858.50;5009342;28;20049;-71
2022/12/18 07:28:28;;;;;;;68.18;23.70;;;;;;;-4.57;87.22;102856.75;4992262;28;20165;-71
2022/12/18 07:30:54;;;;;;;64.65;22.98;;;;;;;-4.16;85.05;102850.81;4995039;28;20552;-71
2022/12/18 07:33:21;;;;;;;50.35;19.17;;;;;;;-4.56;84.71;102863.63;5016113;28;20525;-71
2022/12/18 07:35:47;;;;;;;73.57;23.77;;;;;;;-4.50;85.74;102851.97;4995827;28;20037;-71
2022/12/18 07:38:14;;;;;;;51.28;20.58;;;;;;;-4.22;83.65;102856.59;4990412;28;20462;-71
2022/12/18 07:40:42;;;;;;;56.30;21.25;;;;;;;-4.32;82.59;102853.56;5004645;28;20060;-72
2022/12/18 07:43:08;;;;;;;39.65;15.95;;;;;;;-4.69;83.87;102864.75;4981584;28;20398;-71
2022/12/18 07:45:34;;;;;;;56.15;20.75;;;;;;;-4.30;82.41;102864.75;4990630;28;20463;-71
2022/12/18 07:48:01;;;;;;;49.78;22.40;;;;;;;-4.23;81.63;102875.31;4996935;28;20045;-71
2022/12/18 07:50:27;;;;;;;52.80;20.63;;;;;;;-4.66;82.15;102870.03;4991206;28;20099;-71
2022/12/18 07:52:54;;;;;;;33.28;15.20;;;;;;;-4.48;81.41;102859.72;5005156;28;20051;-71
2022/12/18 07:55:20;;;;;;;47.55;19.92;;;;;;;-4.22;79.82;102860.81;5013554;28;20057;-70
2022/12/18 07:57:48;;;;;;;47.33;18.63;;;;;;;-4.80;81.29;102857.44;5015167;28;20083;-72
2022/12/18 08:00:16;;;;;;;21.35;9.65;;;;;;;-4.89;81.70;102868.13;4998889;28;20038;-72
2022/12/18 08:02:42;;;;;;;42.38;17.77;;;;;;;-5.05;82.72;102870.81;5001519;28;20490;-72
2022/12/18 08:05:09;;;;;;;40.83;17.67;;;;;;;-4.85;81.79;102879.38;4989488;28;20406;-72
2022/12/18 08:07:36;;;;;;;58.00;22.75;;;;;;;-5.00;81.26;102885.56;5001597;28;20049;-72
2022/12/18 08:10:02;;;;;;;55.22;21.92;;;;;;;-5.43;83.40;102884.34;5018261;28;20049;-71
2022/12/18 08:12:29;;;;;;;44.58;18.92;;;;;;;-5.03;83.08;102893.09;4981851;28;20049;-71
2022/12/18 08:14:56;;;;;;;55.40;21.15;;;;;;;-4.84;81.36;102896.50;5004251;28;20133;-71
2022/12/18 08:17:23;;;;;;;50.20;20.45;;;;;;;-4.90;80.81;102891.97;4994809;28;20050;-71
2022/12/18 08:19:49;;;;;;;52.70;20.95;;;;;;;-5.50;83.36;102890.00;4991350;28;20434;-71
2022/12/18 08:22:16;;;;;;;67.30;26.20;;;;;;;-5.62;83.79;102895.41;5026832;28;20493;-71
2022/12/18 08:24:42;;;;;;;52.38;22.63;;;;;;;-5.46;82.70;102902.13;5007894;28;20101;-71
2022/12/18 08:27:09;;;;;;;52.78;22.95;;;;;;;-5.08;81.67;102902.25;4997700;28;20057;-71
2022/12/18 08:29:35;;;;;;;37.28;16.02;;;;;;;-5.34;82.32;102906.94;5013740;28;20049;-72
2022/12/18 08:32:03;;;;;;;36.65;16.75;;;;;;;-5.23;81.80;102909.19;4996924;28;20047;-72
2022/12/18 08:34:30;;;;;;;42.28;18.27;;;;;;;-5.02;81.98;102896.50;5002893;28;20036;-70
2022/12/18 08:36:56;;;;;;;46.08;18.58;;;;;;;-4.82;80.45;102895.75;5014502;28;20068;-70
2022/12/18 08:39:23;;;;;;;51.17;19.70;;;;;;;-5.11;81.15;102898.66;5019812;28;20030;-70
2022/12/18 08:44:38;;;;;;;50.50;20.35;;;;;;;-5.77;83.91;102896.34;5030002;28;20048;-71
2022/12/18 08:47:07;;;;;;;35.30;14.93;;;;;;;-6.08;85.15;102897.41;5014822;28;20038;-71
2022/12/18 08:49:34;;;;;;;44.63;19.52;;;;;;;-5.48;84.92;102893.50;5015245;28;20051;-71
2022/12/18 08:52:02;;;;;;;58.80;23.08;;;;;;;-5.68;85.17;102894.22;5025781;28;20046;-71
2022/12/18 08:54:29;;;;;;;51.25;21.58;;;;;;;-5.43;84.10;102892.91;5026954;28;20045;-71
2022/12/18 08:56:55;;;;;;;36.20;16.40;;;;;;;-5.60;84.62;102888.69;5031819;28;20057;-71
2022/12/18 08:59:23;;;;;;;47.30;20.15;;;;;;;-5.80;85.45;102896.19;5033847;28;20519;-71
2022/12/18 09:01:49;;;;;;;44.90;18.63;;;;;;;-5.36;85.59;102899.22;5007952;28;20140;-72
2022/12/18 09:04:17;;;;;;;42.72;18.63;;;;;;;-5.03;83.54;102884.56;5005385;28;20045;-72
2022/12/18 09:06:44;;;;;;;45.50;19.48;;;;;;;-4.98;83.75;102891.63;4987144;28;20050;-72
2022/12/18 09:09:10;;;;;;;37.88;16.02;;;;;;;-4.00;81.21;102883.97;4999612;28;20057;-72
2022/12/18 09:11:37;;;;;;;40.33;17.75;;;;;;;-4.43;79.92;102882.13;4994744;28;20359;-72
2022/12/18 09:14:04;;;;;;;33.25;14.95;;;;;;;-4.36;80.60;102875.59;5012461;28;20045;-72
2022/12/18 09:16:31;;;;;;;31.17;13.10;;;;;;;-4.18;78.61;102888.31;4984696;28;20042;-72
2022/12/18 09:19:00;;;;;;;38.45;16.48;;;;;;;-4.30;80.21;102878.44;4994582;28;20050;-71
2022/12/18 09:21:29;;;;;;;39.88;17.35;;;;;;;-3.85;80.27;102873.47;5018786;28;20041;-72
2022/12/18 09:23:56;;;;;;;28.17;11.65;;;;;;;-3.74;78.61;102872.22;5000448;28;20045;-72
2022/12/18 09:26:26;;;;;;;36.05;16.45;;;;;;;-2.90;78.27;102866.09;5001717;28;20052;-72
2022/12/18 09:28:52;;;;;;;33.22;15.55;;;;;;;-3.06;76.51;102865.50;5003626;28;20053;-72
2022/12/18 09:31:21;;;;;;;38.95;18.25;;;;;;;-2.82;75.90;102867.25;4999293;28;20049;-72
2022/12/18 09:33:47;;;;;;;37.25;17.85;;;;;;;-3.23;76.13;102858.88;5009498;28;20065;-72
2022/12/18 09:36:16;;;;;;;27.65;13.07;;;;;;;-2.55;74.98;102857.97;5006952;28;20050;-72
2022/12/18 09:38:45;;;;;;;35.40;17.02;;;;;;;-1.71;73.47;102848.81;5009036;28;20068;-72
2022/12/18 09:41:34;;;;;;;43.55;18.83;;;;;;;-0.99;70.56;102845.03;4995659;28;20050;-72
2022/12/18 09:44:04;;;;;;;38.63;16.02;;;;;;;-0.66;68.09;102829.66;4965224;28;20066;-72
2022/12/18 09:46:34;;;;;;;37.10;16.75;;;;;;;0.05;64.74;102828.06;5009659;28;20525;-72
2022/12/18 09:49:03;;;;;;;26.23;13.80;;;;;;;-0.05;64.80;102826.97;4994713;28;20073;-72
2022/12/18 09:51:37;;;;;;;39.63;17.85;;;;;;;-0.28;65.01;102831.56;4995356;28;20056;-72
2022/12/18 09:54:08;;;;;;;38.58;18.80;;;;;;;-0.39;66.05;102825.25;4995174;28;20049;-72
2022/12/18 09:56:38;;;;;;;36.15;18.27;;;;;;;-0.25;64.31;102830.75;5000179;28;20042;-73
2022/12/18 09:59:06;;;;;;;29.83;15.38;;;;;;;-0.18;63.17;102819.75;4998145;28;20147;-72
2022/12/18 10:01:33;;;;;;;29.90;13.73;;;;;;;-0.87;63.93;102824.78;5003892;28;20042;-72
2022/12/18 10:04:00;;;;;;;35.17;17.73;;;;;;;-0.35;66.15;102816.75;4984396;28;20046;-72
2022/12/18 10:06:36;;;;;;;40.17;16.70;;;;;;;-0.40;64.41;102814.88;4997069;28;20053;-73
2022/12/18 10:09:10;;;;;;;32.85;15.05;;;;;;;0.57;62.26;102812.97;5004978;28;20155;-72
2022/12/18 10:11:47;;;;;;;42.92;18.60;;;;;;;0.34;61.86;102822.78;4992756;28;20069;-72
2022/12/18 10:14:23;;;;;;;32.65;16.38;;;;;;;1.12;59.60;102824.47;4991012;28;20046;-72
2022/12/18 10:16:58;;;;;;;23.98;9.90;;;;;;;0.45;58.57;102810.09;4997275;28;20491;-72
2022/12/18 10:19:38;;;;;;;33.55;16.80;;;;;;;-0.19;62.77;102800.00;4992946;28;20053;-72
2022/12/18 10:22:18;;;;;;;27.55;14.13;;;;;;;0.26;62.23;102800.22;4991772;28;20042;-72
2022/12/18 10:24:53;;;;;;;33.42;15.63;;;;;;;0.46;62.58;102799.84;4990028;28;20049;-72
2022/12/18 10:27:25;;;;;;;35.33;16.05;;;;;;;0.24;61.82;102799.31;5001361;28;20469;-72
2022/12/18 10:29:51;;;;;;;33.63;16.33;;;;;;;0.94;59.88;102807.75;4997617;28;20417;-72
2022/12/18 10:32:20;;;;;;;37.20;16.52;;;;;;;0.85;59.03;102806.72;4981676;28;20053;-72
2022/12/18 10:34:48;;;;;;;29.85;14.60;;;;;;;1.52;58.46;102795.06;4991356;28;20053;-72
2022/12/18 10:37:18;;;;;;;35.10;17.55;;;;;;;0.70;59.51;102796.06;4992826;28;20045;-71
2022/12/18 10:39:46;;;;;;;30.13;16.48;;;;;;;0.31;60.55;102801.19;4993805;28;20050;-71
2022/12/18 10:42:18;;;;;;;26.55;13.43;;;;;;;1.17;59.53;102778.94;5003419;28;20529;-72
2022/12/18 10:44:45;;;;;;;31.73;17.10;;;;;;;1.60;58.78;102790.91;4981457;28;20676;-72
2022/12/18 10:47:15;;;;;;;31.55;15.02;;;;;;;1.70;57.33;102788.50;5001089;28;20053;-73
2022/12/18 10:49:49;;;;;;;34.33;16.17;;;;;;;1.93;56.38;102801.84;5002304;28;20053;-73
2022/12/18 10:52:18;;;;;;;34.10;15.77;;;;;;;1.54;57.94;102796.00;4981390;28;20072;-72
2022/12/18 10:54:51;;;;;;;30.52;15.23;;;;;;;1.63;57.72;102794.41;4990229;28;20056;-72
2022/12/18 10:57:30;;;;;;;34.38;15.65;;;;;;;1.65;58.45;102795.34;4995447;28;20064;-72
2022/12/18 10:59:58;;;;;;;32.75;13.90;;;;;;;2.31;56.27;102794.69;4994995;28;20053;-72
2022/12/18 11:02:28;;;;;;;32.80;15.93;;;;;;;1.66;56.84;102799.69;4993052;28;20047;-72
2022/12/18 11:04:55;;;;;;;29.92;14.10;;;;;;;2.54;56.05;102814.03;4966936;28;21042;-72
2022/12/18 11:07:21;;;;;;;30.38;16.35;;;;;;;2.41;55.15;102825.91;4987817;28;20050;-72
2022/12/18 11:10:03;;;;;;;32.90;16.40;;;;;;;0.94;59.29;102827.53;4998098;28;20045;-72
2022/12/18 11:12:30;;;;;;;33.08;14.27;;;;;;;0.74;60.14;102827.09;5005289;28;20080;-72
2022/12/18 11:14:57;;;;;;;38.67;17.65;;;;;;;0.06;64.17;102822.97;5007677;28;20549;-72
2022/12/18 11:17:29;;;;;;;34.22;16.05;;;;;;;0.51;64.42;102819.72;4981199;28;20497;-73
2022/12/18 11:19:57;;;;;;;;;;;;;;;0.99;60.79;102825.94;4991144;28;20084;-72
2022/12/18 11:22:27;;;;;;;35.85;16.58;;;;;;;1.10;59.52;102831.31;5005865;28;20286;-72
2022/12/18 11:24:59;;;;;;;27.65;14.57;;;;;;;-0.48;63.93;102824.97;5000612;28;20116;-72